Time;durP1;ratioP1;P1;durP2;ratioP2;P2;SDS_P1;SDS_P2;PMS_P1;PMS_P2;Temp;Humidity;BMP_temperature;BMP_pressure;BME280_temperature;BME280_humidity;BME280_pressure;Samples;Min_cycle;Max_cycle;Signal;HPM_P1;HPM_P2
2022/10/21 00:00:49;;;;;;;13.65;12.05;;;;;;;8.83;100.00;101109.56;5032627;28;20255;-48
2022/10/21 00:03:14;;;;;;;13.43;12.13;;;;;;;8.82;100.00;101110.50;5032366;28;20716;-45
2022/10/21 00:05:40;;;;;;;18.55;12.95;;;;;;;8.81;100.00;101096.25;5048141;28;20274;-47
2022/10/21 00:08:05;;;;;;;15.13;12.25;;;;;;;8.82;100.00;101091.78;5051587;28;20210;-51
2022/10/21 00:10:31;;;;;;;13.27;11.90;;;;;;;8.75;100.00;101084.88;5045291;28;20168;-51
2022/10/21 00:12:56;;;;;;;13.90;12.48;;;;;;;8.75;100.00;101082.19;5041531;28;20209;-51
2022/10/21 00:15:22;;;;;;;15.45;12.65;;;;;;;8.74;100.00;101077.75;5040636;28;20171;-51
2022/10/21 00:17:47;;;;;;;17.40;12.43;;;;;;;8.70;100.00;101078.75;5033955;28;20204;-51
2022/10/21 00:20:13;;;;;;;13.75;12.23;;;;;;;8.62;100.00;101084.31;5032755;28;20698;-52
2022/10/21 00:22:38;;;;;;;14.45;11.63;;;;;;;8.58;100.00;101082.63;5031530;28;20358;-51
2022/10/21 00:25:04;;;;;;;13.80;12.30;;;;;;;8.62;100.00;101070.97;5033342;28;20187;-51
2022/10/21 00:27:30;;;;;;;14.07;12.43;;;;;;;8.55;100.00;101064.91;5036573;28;20602;-52
2022/10/21 00:29:55;;;;;;;13.95;12.45;;;;;;;8.55;100.00;101069.34;5033918;28;20183;-51
2022/10/21 00:32:20;;;;;;;15.45;11.95;;;;;;;8.57;100.00;101071.06;5043728;28;20187;-51
2022/10/21 00:34:47;;;;;;;14.18;12.82;;;;;;;8.52;100.00;101051.59;5039224;28;20287;-51
2022/10/21 00:37:14;;;;;;;15.52;12.13;;;;;;;8.48;100.00;101054.41;5047931;28;20270;-51
2022/10/21 00:39:39;;;;;;;14.43;11.93;;;;;;;8.46;100.00;101070.44;5041596;28;20612;-51
2022/10/21 00:42:12;;;;;;;19.88;11.98;;;;;;;8.50;100.00;101063.25;5025307;28;20274;-48
2022/10/21 00:44:39;;;;;;;21.08;12.45;;;;;;;8.43;100.00;101063.41;5043715;28;20240;-46
2022/10/21 00:47:07;;;;;;;16.50;12.48;;;;;;;8.47;100.00;101063.34;5051447;28;20171;-48
2022/10/21 00:49:36;;;;;;;13.75;12.40;;;;;;;8.41;100.00;101061.69;5051708;28;20163;-50
2022/10/21 00:52:06;;;;;;;13.10;11.60;;;;;;;8.39;100.00;101053.69;5044182;28;20524;-48
2022/10/21 00:54:33;;;;;;;13.38;11.98;;;;;;;8.38;100.00;101035.91;5031756;28;20270;-47
2022/10/21 00:56:58;;;;;;;15.38;13.20;;;;;;;8.33;100.00;101040.50;5044279;28;20260;-46
2022/10/21 00:59:30;;;;;;;14.10;12.70;;;;;;;8.32;100.00;101040.53;5033260;28;20195;-48
2022/10/21 01:01:55;;;;;;;16.08;13.10;;;;;;;8.37;100.00;101046.63;5033476;28;20210;-49
2022/10/21 01:04:22;;;;;;;15.77;12.80;;;;;;;8.31;100.00;101038.78;5013259;28;20227;-49
2022/10/21 01:06:48;;;;;;;14.68;12.68;;;;;;;8.30;100.00;101035.22;5031332;28;20175;-50
2022/10/21 01:09:15;;;;;;;13.88;12.02;;;;;;;8.31;100.00;101036.09;5031170;28;20180;-50
2022/10/21 01:11:43;;;;;;;16.80;13.70;;;;;;;8.28;100.00;101039.72;5032073;28;20213;-48
2022/10/21 01:14:16;;;;;;;17.23;13.65;;;;;;;8.25;100.00;101042.50;5050996;28;20248;-48
2022/10/21 01:16:49;;;;;;;18.08;14.02;;;;;;;8.27;100.00;101034.47;5050900;28;20174;-52
2022/10/21 01:19:54;;;;;;;17.15;13.90;;;;;;;8.27;100.00;101026.44;5050825;28;20194;-47
2022/10/21 01:22:51;;;;;;;15.00;13.45;;;;;;;8.28;100.00;101034.41;5030115;28;20210;-47
2022/10/21 01:25:41;;;;;;;17.35;13.15;;;;;;;8.22;100.00;101022.09;5011869;28;20184;-47
2022/10/21 01:28:29;;;;;;;14.93;13.05;;;;;;;8.29;100.00;101027.25;5030815;28;20193;-49
2022/10/21 01:31:12;;;;;;;13.82;12.35;;;;;;;8.21;100.00;101009.66;5030937;28;20180;-49
2022/10/21 01:34:07;;;;;;;15.00;13.50;;;;;;;8.25;100.00;101005.13;5030764;28;20199;-49
2022/10/21 01:37:02;;;;;;;14.98;13.38;;;;;;;8.21;100.00;101011.44;5030921;28;20145;-52
2022/10/21 01:39:37;;;;;;;14.50;12.05;;;;;;;8.25;100.00;101000.66;5030691;28;20211;-48
2022/10/21 01:42:36;;;;;;;16.85;14.02;;;;;;;8.19;100.00;100998.13;5032960;28;20179;-50
2022/10/21 01:45:20;;;;;;;17.60;13.02;;;;;;;8.12;100.00;100996.56;5050509;28;20195;-48
2022/10/21 01:47:52;;;;;;;15.10;13.57;;;;;;;8.17;100.00;100993.75;5050149;28;20622;-45
2022/10/21 01:50:26;;;;;;;15.73;14.02;;;;;;;8.10;100.00;100982.38;5050440;28;20217;-50
2022/10/21 01:52:56;;;;;;;15.27;13.68;;;;;;;8.08;100.00;100980.66;5049971;28;20163;-50
2022/10/21 01:55:27;;;;;;;21.42;15.05;;;;;;;8.03;100.00;100984.31;5050450;28;20191;-49
2022/10/21 01:57:58;;;;;;;19.17;15.00;;;;;;;8.03;100.00;100980.78;5050665;28;20222;-47
2022/10/21 02:00:24;;;;;;;16.02;14.35;;;;;;;8.02;100.00;100981.69;5064155;28;20216;-46
2022/10/21 02:02:56;;;;;;;16.95;14.65;;;;;;;8.01;100.00;100987.94;5050262;28;20673;-48
2022/10/21 02:05:27;;;;;;;19.50;15.82;;;;;;;8.02;100.00;100984.34;5050066;28;20266;-48
2022/10/21 02:07:53;;;;;;;17.60;15.60;;;;;;;8.07;100.00;100986.91;5050296;28;20243;-47
2022/10/21 02:10:20;;;;;;;20.60;15.73;;;;;;;8.04;100.00;100990.53;5041753;28;20549;-50
2022/10/21 02:12:49;;;;;;;20.80;15.60;;;;;;;8.03;100.00;100983.44;5034326;28;20175;-50
2022/10/21 02:15:17;;;;;;;18.92;15.35;;;;;;;8.02;100.00;100974.56;5037715;28;20181;-50
2022/10/21 02:17:48;;;;;;;18.42;15.55;;;;;;;8.02;100.00;100968.34;5036689;28;20290;-51
2022/10/21 02:20:16;;;;;;;19.92;15.38;;;;;;;8.02;100.00;100965.66;5038762;28;20263;-51
2022/10/21 02:22:45;;;;;;;17.38;14.93;;;;;;;8.03;100.00;100956.75;5033058;28;20188;-51
2022/10/21 02:25:19;;;;;;;17.35;15.55;;;;;;;8.03;100.00;100951.44;5026148;28;20180;-51
2022/10/21 02:27:45;;;;;;;16.02;14.32;;;;;;;8.01;100.00;100954.13;5032899;28;20641;-49
2022/10/21 02:30:11;;;;;;;17.95;15.38;;;;;;;7.86;100.00;100949.19;5035808;28;20320;-50
2022/10/21 02:32:51;;;;;;;18.38;15.50;;;;;;;7.83;100.00;100944.81;5030383;28;20267;-51
2022/10/21 02:35:38;;;;;;;18.08;14.13;;;;;;;7.92;100.00;100949.03;5035563;28;20838;-50
2022/10/21 02:38:40;;;;;;;18.65;14.63;;;;;;;7.80;100.00;100941.31;5028200;28;20202;-49
2022/10/21 02:41:19;;;;;;;18.17;15.50;;;;;;;7.77;100.00;100952.94;5019403;28;20195;-50
2022/10/21 02:43:50;;;;;;;19.15;15.68;;;;;;;7.78;100.00;100948.50;5030573;28;20303;-51
2022/10/21 02:46:15;;;;;;;20.58;16.48;;;;;;;7.79;100.00;100940.47;5033674;28;20211;-52
2022/10/21 02:48:45;;;;;;;20.38;16.05;;;;;;;7.79;100.00;100936.91;5037004;28;20214;-51
2022/10/21 02:51:11;;;;;;;19.17;17.00;;;;;;;7.79;100.00;100935.13;5025035;28;20186;-51
2022/10/21 02:53:37;;;;;;;20.60;17.20;;;;;;;7.82;100.00;100943.03;5037182;28;20277;-51
2022/10/21 02:56:03;;;;;;;20.40;16.30;;;;;;;7.86;100.00;100943.84;5032785;28;20172;-50
2022/10/21 02:58:29;;;;;;;21.13;16.88;;;;;;;7.88;100.00;100954.47;5033672;28;20203;-49
2022/10/21 03:00:54;;;;;;;21.90;18.17;;;;;;;7.90;100.00;100947.31;5036951;28;20234;-51
2022/10/21 03:03:20;;;;;;;25.58;18.95;;;;;;;7.93;100.00;100948.09;5028512;28;20214;-48
2022/10/21 03:05:45;;;;;;;21.98;18.25;;;;;;;7.98;100.00;100934.63;5043062;28;20207;-50
2022/10/21 03:08:11;;;;;;;24.25;19.05;;;;;;;8.02;100.00;100945.22;5040234;28;20187;-50
2022/10/21 03:10:37;;;;;;;22.77;18.10;;;;;;;8.05;100.00;100946.94;5042891;28;20175;-50
2022/10/21 03:13:02;;;;;;;24.75;18.45;;;;;;;8.10;100.00;100942.34;5038592;28;20575;-49
2022/10/21 03:15:28;;;;;;;21.25;18.42;;;;;;;8.15;100.00;100948.41;5035981;28;20191;-51
2022/10/21 03:17:54;;;;;;;22.38;18.73;;;;;;;8.20;100.00;100946.53;5037509;28;20203;-50
2022/10/21 03:20:19;;;;;;;21.55;18.77;;;;;;;8.18;100.00;100940.34;5039451;28;20401;-50
2022/10/21 03:22:45;;;;;;;23.52;18.50;;;;;;;8.23;100.00;100943.75;5038329;28;20593;-51
2022/10/21 03:25:10;;;;;;;24.52;19.17;;;;;;;8.25;100.00;100949.94;5038216;28;20180;-51
2022/10/21 03:27:36;;;;;;;23.73;19.20;;;;;;;8.30;100.00;100946.28;5038415;28;20188;-52
2022/10/21 03:30:03;;;;;;;24.80;18.80;;;;;;;8.31;100.00;100927.56;5039106;28;20184;-52
2022/10/21 03:32:28;;;;;;;25.45;19.40;;;;;;;8.33;100.00;100936.41;5042064;28;20215;-53
2022/10/21 03:34:54;;;;;;;22.48;19.55;;;;;;;8.35;100.00;100936.34;5040262;28;20237;-51
2022/10/21 03:37:19;;;;;;;27.88;20.38;;;;;;;8.38;100.00;100936.28;5040350;28;20650;-45
2022/10/21 03:39:45;;;;;;;23.98;19.52;;;;;;;8.39;100.00;100938.00;5050693;28;20175;-46
2022/10/21 03:42:10;;;;;;;23.00;18.38;;;;;;;8.42;100.00;100928.16;5053043;28;20230;-46
2022/10/21 03:44:36;;;;;;;24.50;19.58;;;;;;;8.44;100.00;100930.81;5041273;28;20204;-47
2022/10/21 03:47:01;;;;;;;23.52;19.30;;;;;;;8.44;100.00;100930.81;5032237;28;20176;-46
2022/10/21 03:49:26;;;;;;;29.95;19.83;;;;;;;8.41;100.00;100921.06;5034211;28;20176;-46
2022/10/21 03:51:52;;;;;;;24.92;19.58;;;;;;;8.45;100.00;100938.75;5032091;28;20176;-49
2022/10/21 03:54:18;;;;;;;26.40;19.77;;;;;;;8.47;100.00;100925.38;5039812;28;20207;-45
2022/10/21 03:56:43;;;;;;;24.17;18.77;;;;;;;8.52;100.00;100928.78;5047687;28;20252;-47
2022/10/21 03:59:09;;;;;;;23.95;18.70;;;;;;;8.48;100.00;100920.88;5040055;28;20196;-45
2022/10/21 04:01:35;;;;;;;20.20;17.58;;;;;;;8.55;100.00;100919.78;5036169;28;20179;-50
2022/10/21 04:04:00;;;;;;;24.58;18.50;;;;;;;8.53;100.00;100927.00;5047677;28;20228;-50
2022/10/21 04:06:26;;;;;;;25.38;20.00;;;;;;;8.52;100.00;100931.44;5039650;28;20175;-45
2022/10/21 04:08:51;;;;;;;25.75;19.40;;;;;;;8.54;100.00;100918.06;5034145;28;20206;-47
2022/10/21 04:11:17;;;;;;;21.17;18.92;;;;;;;8.58;100.00;100914.38;5034793;28;20279;-48
2022/10/21 04:13:42;;;;;;;23.95;18.67;;;;;;;8.59;100.00;100917.00;5036204;28;20239;-51
2022/10/21 04:16:13;;;;;;;19.75;17.50;;;;;;;8.64;100.00;100922.22;5033917;28;20187;-47
2022/10/21 04:18:39;;;;;;;25.83;19.67;;;;;;;8.61;100.00;100923.16;5046460;28;20192;-49
2022/10/21 04:21:04;;;;;;;22.67;18.58;;;;;;;8.68;100.00;100905.19;5048038;28;20206;-45
2022/10/21 04:23:30;;;;;;;27.65;20.65;;;;;;;8.61;100.00;100917.81;5041485;28;20200;-46
2022/10/21 04:25:55;;;;;;;26.05;20.35;;;;;;;8.62;100.00;100916.91;5038588;28;20242;-47
2022/10/21 04:28:21;;;;;;;27.50;20.13;;;;;;;8.62;100.00;100916.91;5039791;28;20180;-45
2022/10/21 04:30:48;;;;;;;24.23;19.50;;;;;;;8.63;100.00;100915.97;5037209;28;20172;-46
2022/10/21 04:33:14;;;;;;;22.65;19.05;;;;;;;8.66;100.00;100923.06;5043133;28;20256;-49
2022/10/21 04:35:39;;;;;;;22.85;19.45;;;;;;;8.65;100.00;100914.16;5034873;28;20468;-50
2022/10/21 04:38:05;;;;;;;26.88;19.75;;;;;;;8.68;100.00;100907.88;5031570;28;20254;-46
2022/10/21 04:40:30;;;;;;;23.75;19.73;;;;;;;8.64;100.00;100904.41;5038181;28;20707;-46
2022/10/21 04:42:55;;;;;;;22.40;19.30;;;;;;;8.65;100.00;100906.13;5040695;28;20207;-49
2022/10/21 04:45:21;;;;;;;23.05;19.30;;;;;;;8.66;100.00;100901.69;5038822;28;20242;-45
2022/10/21 04:47:46;;;;;;;23.88;18.42;;;;;;;8.66;100.00;100889.19;5038898;28;20176;-47
2022/10/21 04:50:12;;;;;;;21.92;18.85;;;;;;;8.71;100.00;100875.72;5038504;28;20175;-46
2022/10/21 04:52:38;;;;;;;20.17;17.90;;;;;;;8.70;100.00;100873.94;5042382;28;20631;-48
2022/10/21 04:55:04;;;;;;;25.17;18.80;;;;;;;8.69;100.00;100877.53;5046150;28;20192;-45
2022/10/21 04:57:29;;;;;;;21.52;18.55;;;;;;;8.71;100.00;100873.03;5039279;28;20642;-43
2022/10/21 04:59:55;;;;;;;21.92;18.90;;;;;;;8.69;100.00;100880.22;5046784;28;20172;-45
2022/10/21 05:02:20;;;;;;;24.27;18.20;;;;;;;8.72;100.00;100871.22;5048795;28;20263;-45
2022/10/21 05:04:46;;;;;;;26.63;18.63;;;;;;;8.71;100.00;100880.19;5040402;28;20353;-46
2022/10/21 05:07:11;;;;;;;26.23;19.52;;;;;;;8.72;100.00;100877.44;5038058;28;20191;-47
2022/10/21 05:09:36;;;;;;;26.70;18.05;;;;;;;8.71;100.00;100865.03;5037069;28;20187;-47
2022/10/21 05:12:02;;;;;;;21.02;17.05;;;;;;;8.73;100.00;100865.84;5036474;28;20203;-49
2022/10/21 05:14:28;;;;;;;20.63;18.27;;;;;;;8.80;100.00;100862.06;5028895;28;20250;-49
2022/10/21 05:16:53;;;;;;;26.15;17.92;;;;;;;8.75;100.00;100861.34;5034290;28;20255;-47
2022/10/21 05:19:19;;;;;;;23.55;18.77;;;;;;;8.68;100.00;100862.47;5041213;28;20222;-48
2022/10/21 05:21:45;;;;;;;25.35;19.10;;;;;;;8.70;100.00;100862.38;5037747;28;20171;-47
2022/10/21 05:24:13;;;;;;;21.00;18.42;;;;;;;8.70;100.00;100865.94;5034962;28;20222;-49
2022/10/21 05:26:38;;;;;;;18.52;16.35;;;;;;;8.75;100.00;100872.03;5033655;28;20175;-49
2022/10/21 05:29:04;;;;;;;21.67;17.40;;;;;;;8.76;100.00;100879.09;5029354;28;20715;-49
2022/10/21 05:31:29;;;;;;;20.63;18.42;;;;;;;8.67;100.00;100874.03;5036894;28;20573;-48
2022/10/21 05:33:55;;;;;;;22.08;18.73;;;;;;;8.66;100.00;100872.31;5038068;28;20284;-49
2022/10/21 05:36:21;;;;;;;23.73;17.85;;;;;;;8.66;100.00;100861.63;5034827;28;20318;-48
2022/10/21 05:38:46;;;;;;;23.13;19.20;;;;;;;8.67;100.00;100866.03;5036388;28;20298;-50
2022/10/21 05:41:12;;;;;;;27.27;18.92;;;;;;;8.66;100.00;100859.81;5037816;28;20188;-49
2022/10/21 05:43:37;;;;;;;27.80;19.92;;;;;;;8.66;100.00;100867.84;5033745;28;20709;-50
2022/10/21 05:46:04;;;;;;;26.05;19.15;;;;;;;8.68;100.00;100872.25;5031374;28;20262;-48
2022/10/21 05:48:29;;;;;;;23.77;19.40;;;;;;;8.63;100.00;100870.56;5041395;28;20251;-50
2022/10/21 05:50:55;;;;;;;22.00;19.00;;;;;;;8.65;100.00;100857.19;5025161;28;20638;-49
2022/10/21 05:53:25;;;;;;;26.77;20.02;;;;;;;8.63;100.00;100849.22;5033054;28;20220;-49
2022/10/21 05:56:04;;;;;;;27.40;20.65;;;;;;;8.62;100.00;100858.16;5036814;28;20183;-50
2022/10/21 05:58:31;;;;;;;21.25;18.23;;;;;;;8.64;100.00;100867.00;5032050;28;20230;-49
2022/10/21 06:00:57;;;;;;;26.73;20.10;;;;;;;8.65;100.00;100860.72;5033860;28;20175;-49
2022/10/21 06:03:28;;;;;;;23.92;18.60;;;;;;;8.71;100.00;100861.47;5020742;28;248156;-49
2022/10/21 06:05:54;;;;;;;32.80;21.92;;;;;;;8.71;100.00;100866.81;5030335;28;20394;-49
2022/10/21 06:08:20;;;;;;;24.80;19.83;;;;;;;8.73;100.00;100859.66;5034408;28;20262;-48
2022/10/21 06:10:45;;;;;;;25.90;20.58;;;;;;;8.73;100.00;100867.66;5033629;28;20601;-47
2022/10/21 06:13:11;;;;;;;26.58;20.05;;;;;;;8.71;100.00;100857.00;5033292;28;20211;-49
2022/10/21 06:15:36;;;;;;;26.70;21.35;;;;;;;8.72;100.00;100848.06;5032606;28;20176;-47
2022/10/21 06:18:02;;;;;;;28.83;20.08;;;;;;;8.71;100.00;100846.31;5031525;28;20310;-48
2022/10/21 06:20:27;;;;;;;27.73;21.23;;;;;;;8.69;100.00;100853.50;5034115;28;20231;-47
2022/10/21 06:22:53;;;;;;;23.33;20.05;;;;;;;8.68;100.00;100845.53;5020147;28;20292;-46
2022/10/21 06:25:20;;;;;;;25.40;20.70;;;;;;;8.66;100.00;100848.28;5034913;28;20565;-46
2022/10/21 06:27:45;;;;;;;28.33;21.45;;;;;;;8.65;100.00;100849.19;5032821;28;20635;-47
2022/10/21 06:30:11;;;;;;;28.02;19.95;;;;;;;8.66;100.00;100866.97;5024913;28;20195;-47
2022/10/21 06:32:36;;;;;;;28.10;20.98;;;;;;;8.66;100.00;100878.53;5035019;28;20167;-49
2022/10/21 06:35:02;;;;;;;26.42;20.63;;;;;;;8.70;100.00;100876.59;5031683;28;20246;-46
2022/10/21 06:37:28;;;;;;;22.80;19.85;;;;;;;8.77;100.00;100874.66;5034551;28;20313;-45
2022/10/21 06:39:53;;;;;;;24.77;20.70;;;;;;;8.76;100.00;100871.09;5039517;28;20175;-50
2022/10/21 06:42:18;;;;;;;25.98;20.00;;;;;;;8.75;100.00;100866.69;5037082;28;20647;-45
2022/10/21 06:44:46;;;;;;;26.52;19.75;;;;;;;8.80;100.00;100875.44;5035564;28;20276;-45
2022/10/21 06:47:11;;;;;;;28.52;21.30;;;;;;;8.88;100.00;100883.22;5036629;28;20214;-51
2022/10/21 06:49:37;;;;;;;23.20;20.40;;;;;;;8.97;100.00;100890.94;5034343;28;20636;-45
2022/10/21 06:52:03;;;;;;;24.30;18.92;;;;;;;9.02;100.00;100870.28;5039350;28;20198;-48
2022/10/21 06:54:28;;;;;;;26.27;19.92;;;;;;;9.00;100.00;100874.81;5034026;28;20192;-46
2022/10/21 06:56:54;;;;;;;24.00;19.58;;;;;;;9.00;100.00;100882.81;5042583;28;20228;-49
2022/10/21 06:59:19;;;;;;;26.17;20.42;;;;;;;9.00;100.00;100874.81;5034448;28;20276;-44
2022/10/21 07:01:45;;;;;;;24.20;19.42;;;;;;;9.00;100.00;100860.59;5008059;28;20187;-43
2022/10/21 07:04:10;;;;;;;28.95;19.05;;;;;;;9.07;100.00;100848.75;5040857;28;20673;-46
2022/10/21 07:06:37;;;;;;;22.85;18.70;;;;;;;9.05;100.00;100863.97;5034062;28;20171;-44
2022/10/21 07:09:03;;;;;;;26.55;19.88;;;;;;;9.01;100.00;100859.69;5033288;28;20229;-47
2022/10/21 07:11:29;;;;;;;25.77;18.88;;;;;;;9.03;100.00;100844.44;5033147;28;20550;-45
2022/10/21 07:13:54;;;;;;;25.42;19.42;;;;;;;9.03;100.00;100856.03;5034851;28;20191;-47
2022/10/21 07:16:28;;;;;;;22.20;18.85;;;;;;;9.03;100.00;100864.03;5034589;28;20306;-44
2022/10/21 07:18:55;;;;;;;23.90;19.13;;;;;;;9.04;100.00;100860.44;5033984;28;20254;-43
2022/10/21 07:21:23;;;;;;;23.50;20.00;;;;;;;9.10;100.00;100853.16;5035184;28;20211;-43
2022/10/21 07:23:50;;;;;;;24.70;19.98;;;;;;;9.04;100.00;100851.56;5030661;28;20250;-45
2022/10/21 07:26:17;;;;;;;21.50;18.42;;;;;;;9.12;100.00;100852.19;5038293;28;20183;-43
2022/10/21 07:28:46;;;;;;;23.55;19.58;;;;;;;9.09;100.00;100844.25;5038833;28;20233;-43
2022/10/21 07:31:13;;;;;;;23.88;18.92;;;;;;;9.16;100.00;100848.50;5036671;28;20180;-44
2022/10/21 07:33:39;;;;;;;22.77;19.40;;;;;;;9.22;100.00;100858.97;5035990;28;20306;-42
2022/10/21 07:36:18;;;;;;;23.92;20.42;;;;;;;9.20;100.00;100857.28;5019902;28;20179;-42
2022/10/21 07:38:45;;;;;;;26.50;19.63;;;;;;;9.26;100.00;100857.94;5033366;28;20632;-49
2022/10/21 07:41:26;;;;;;;24.83;20.35;;;;;;;9.22;100.00;100856.28;5040401;28;20180;-43
2022/10/21 07:43:53;;;;;;;23.42;19.55;;;;;;;9.26;100.00;100857.09;5037583;28;20210;-47
2022/10/21 07:46:21;;;;;;;24.67;19.40;;;;;;;9.31;100.00;100864.94;5036086;28;20736;-44
2022/10/21 07:48:47;;;;;;;23.75;18.70;;;;;;;9.35;100.00;100854.09;5042905;28;20180;-43
2022/10/21 07:51:15;;;;;;;20.40;17.70;;;;;;;9.36;100.00;100857.63;5043314;28;20186;-42
2022/10/21 07:53:40;;;;;;;30.05;19.85;;;;;;;9.36;100.00;100858.53;5044068;28;20593;-43
2022/10/21 07:56:12;;;;;;;22.73;18.83;;;;;;;9.36;100.00;100858.53;5044836;28;20179;-41
2022/10/21 07:58:38;;;;;;;27.70;20.23;;;;;;;9.38;100.00;100855.78;5036924;28;20688;-41
2022/10/21 08:01:06;;;;;;;25.27;18.95;;;;;;;9.40;100.00;100857.53;5037916;28;20184;-44
2022/10/21 08:03:32;;;;;;;26.38;19.17;;;;;;;9.49;100.00;100861.69;5042974;28;20219;-43
2022/10/21 08:05:57;;;;;;;21.70;19.40;;;;;;;9.47;100.00;100864.41;5025959;28;20548;-42
2022/10/21 08:08:24;;;;;;;25.30;19.75;;;;;;;9.53;100.00;100863.31;5049903;28;20184;-43
2022/10/21 08:10:52;;;;;;;27.20;20.27;;;;;;;9.57;100.00;100872.97;5031871;28;20193;-43
2022/10/21 08:13:18;;;;;;;26.42;20.08;;;;;;;9.63;100.00;100859.41;5035282;28;20239;-42
2022/10/21 08:15:49;;;;;;;21.88;19.35;;;;;;;9.68;100.00;100851.22;5041300;28;20203;-42
2022/10/21 08:18:16;;;;;;;21.65;19.17;;;;;;;9.67;100.00;100858.38;5033369;28;20206;-42
2022/10/21 08:20:43;;;;;;;23.17;19.27;;;;;;;9.72;100.00;100860.91;5039982;28;20550;-42
2022/10/21 08:23:10;;;;;;;26.60;18.90;;;;;;;9.69;100.00;100863.69;5039973;28;20235;-43
2022/10/21 08:25:35;;;;;;;25.05;19.05;;;;;;;9.75;100.00;100875.97;5047214;28;20183;-42
2022/10/21 08:28:02;;;;;;;24.45;18.65;;;;;;;9.78;100.00;100878.56;5038494;28;20180;-43
2022/10/21 08:30:31;;;;;;;24.05;19.38;;;;;;;9.72;100.00;100881.44;5034134;28;20206;-43
2022/10/21 08:32:58;;;;;;;22.80;18.40;;;;;;;9.72;100.00;100865.38;5025047;28;20179;-43
2022/10/21 08:35:25;;;;;;;19.50;17.42;;;;;;;9.79;100.00;100865.09;5040079;28;20194;-43
2022/10/21 08:37:50;;;;;;;21.33;19.02;;;;;;;9.79;100.00;100859.75;5048419;28;20210;-45
2022/10/21 08:40:17;;;;;;;24.98;19.08;;;;;;;9.79;100.00;100857.06;5043648;28;20187;-43
2022/10/21 08:42:44;;;;;;;25.02;18.77;;;;;;;9.82;100.00;100858.78;5034518;28;20172;-44
2022/10/21 08:45:33;;;;;;;23.45;17.75;;;;;;;9.86;100.00;100850.59;5036398;28;20593;-44
2022/10/21 08:48:04;;;;;;;22.08;18.50;;;;;;;9.88;100.00;100845.19;5036452;28;20184;-43
2022/10/21 08:50:38;;;;;;;22.42;18.50;;;;;;;9.96;100.00;100832.41;5042323;28;20180;-42
2022/10/21 08:53:13;;;;;;;21.58;17.75;;;;;;;10.07;100.00;100850.75;5027407;28;20294;-43
2022/10/21 08:55:41;;;;;;;22.00;19.17;;;;;;;10.00;100.00;100830.50;5040747;28;20529;-44
2022/10/21 08:58:33;;;;;;;23.20;17.58;;;;;;;10.04;100.00;100837.50;5040027;28;20219;-45
2022/10/21 09:01:13;;;;;;;20.40;16.48;;;;;;;10.10;100.00;100842.59;5033946;28;20188;-44
2022/10/21 09:03:44;;;;;;;26.73;18.38;;;;;;;10.07;100.00;100850.75;5033781;28;20226;-44
2022/10/21 09:06:26;;;;;;;25.83;19.20;;;;;;;10.14;100.00;100857.63;5035502;28;20278;-42
2022/10/21 09:08:59;;;;;;;24.40;17.77;;;;;;;10.08;100.00;100857.88;5031721;28;20175;-42
2022/10/21 09:11:28;;;;;;;41.72;29.30;;;;;;;10.21;100.00;100861.88;5039243;28;20184;-43
2022/10/21 09:14:18;;;;;;;23.95;18.63;;;;;;;10.11;100.00;100847.06;5033063;28;20199;-42
2022/10/21 09:16:46;;;;;;;22.65;18.48;;;;;;;10.18;100.00;100851.25;5043015;28;20175;-42
2022/10/21 09:20:05;;;;;;;29.90;23.50;;;;;;;10.33;100.00;100836.47;5035421;28;20438;-43
2022/10/21 09:22:45;;;;;;;24.30;18.08;;;;;;;10.39;100.00;100827.34;4957168;28;20194;-40
2022/10/21 09:25:26;;;;;;;21.27;18.70;;;;;;;10.31;100.00;100836.50;5031199;28;20246;-43
2022/10/21 09:27:53;;;;;;;25.77;20.30;;;;;;;10.33;100.00;100827.56;5036889;28;20521;-43
2022/10/21 09:30:21;;;;;;;26.02;17.45;;;;;;;10.38;100.00;100822.91;5035512;28;20739;-42
2022/10/21 09:32:49;;;;;;;23.33;19.75;;;;;;;10.32;100.00;100837.41;5039538;28;20668;-43
2022/10/21 09:35:23;;;;;;;22.02;19.48;;;;;;;10.23;100.00;100835.00;5045393;28;20190;-43
2022/10/21 09:38:11;;;;;;;28.85;19.92;;;;;;;10.30;100.00;100836.59;5040791;28;20207;-45
2022/10/21 09:40:36;;;;;;;25.80;19.92;;;;;;;10.25;100.00;100817.94;5042631;28;20281;-43
2022/10/21 09:43:02;;;;;;;23.60;19.50;;;;;;;10.35;100.00;100817.66;5035507;28;20282;-44
2022/10/21 09:45:32;;;;;;;26.90;21.88;;;;;;;10.41;100.00;100815.63;5033901;28;20192;-44
2022/10/21 09:48:04;;;;;;;25.63;20.80;;;;;;;10.39;100.00;100811.25;5035575;28;20174;-42
2022/10/21 09:50:31;;;;;;;22.42;19.65;;;;;;;10.54;100.00;100824.06;5016181;28;20203;-45
2022/10/21 09:53:03;;;;;;;23.63;19.83;;;;;;;10.55;100.00;100825.81;5038491;28;20491;-46
2022/10/21 09:55:29;;;;;;;24.02;20.25;;;;;;;10.50;100.00;100833.16;5035342;28;20187;-46
2022/10/21 09:58:01;;;;;;;23.73;19.83;;;;;;;10.53;100.00;100822.31;5034519;28;20628;-45
2022/10/21 10:00:44;;;;;;;29.98;21.83;;;;;;;10.78;100.00;100824.03;5033044;28;20187;-46
2022/10/21 10:03:10;;;;;;;24.73;20.17;;;;;;;10.67;100.00;100840.53;5030130;28;20215;-45
2022/10/21 10:05:42;;;;;;;23.65;18.67;;;;;;;10.68;100.00;100824.41;5044032;28;20209;-45
2022/10/21 10:08:27;;;;;;;26.13;19.65;;;;;;;10.75;100.00;100826.84;5040339;28;20242;-43
2022/10/21 10:11:07;;;;;;;25.10;20.42;;;;;;;10.85;100.00;100825.56;5036220;28;20303;-47
2022/10/21 10:13:37;;;;;;;24.83;19.67;;;;;;;10.82;100.00;100825.66;5037633;28;20717;-46
2022/10/21 10:16:12;;;;;;;24.27;19.98;;;;;;;10.90;100.00;100815.53;5034756;28;20592;-44
2022/10/21 10:18:38;;;;;;;21.80;19.35;;;;;;;11.00;100.00;100821.38;5035607;28;20205;-44
2022/10/21 10:21:21;;;;;;;21.45;18.90;;;;;;;10.98;100.00;100817.91;5037174;28;20337;-44
2022/10/21 10:23:54;;;;;;;20.52;17.67;;;;;;;11.04;100.00;100817.63;5033054;28;20598;-45
2022/10/21 10:26:26;;;;;;;21.67;18.67;;;;;;;11.07;100.00;100823.75;5034841;28;20198;-45
2022/10/21 10:28:57;;;;;;;93.15;61.92;;;;;;;11.24;100.00;100824.88;5038674;28;20592;-47
2022/10/21 10:31:26;;;;;;;25.10;20.48;;;;;;;11.30;100.00;100820.16;5040515;28;20626;-45
2022/10/21 10:33:55;;;;;;;122.47;77.55;;;;;;;11.47;100.00;100818.56;5030866;28;20254;-44
2022/10/21 10:36:33;;;;;;;33.80;25.63;;;;;;;11.34;100.00;100800.28;5023751;28;20642;-46
2022/10/21 10:39:01;;;;;;;26.25;19.77;;;;;;;11.39;100.00;100801.91;5035862;28;20356;-43
2022/10/21 10:41:35;;;;;;;27.75;23.00;;;;;;;11.47;100.00;100794.41;5018533;28;20194;-44
2022/10/21 10:44:15;;;;;;;24.55;18.60;;;;;;;11.53;100.00;100800.41;5033421;28;20218;-44
2022/10/21 10:46:41;;;;;;;21.20;18.35;;;;;;;11.86;100.00;100799.88;5039791;28;20186;-44
2022/10/21 10:49:13;;;;;;;20.65;18.48;;;;;;;12.26;100.00;100794.56;5032509;28;20207;-45
2022/10/21 10:51:41;;;;;;;27.75;18.80;;;;;;;12.20;100.00;100784.97;5035905;28;20176;-43
2022/10/21 10:54:16;;;;;;;21.33;18.23;;;;;;;12.36;100.00;100782.44;5035716;28;20258;-45
2022/10/21 10:56:47;;;;;;;18.05;15.73;;;;;;;12.61;100.00;100768.72;5032929;28;20705;-46
2022/10/21 10:59:31;;;;;;;17.75;15.98;;;;;;;12.61;100.00;100749.91;5041833;28;20297;-45
2022/10/21 11:02:08;;;;;;;19.17;16.65;;;;;;;12.53;100.00;100744.91;5038077;28;20209;-46
2022/10/21 11:04:37;;;;;;;20.27;15.80;;;;;;;12.49;100.00;100748.69;5039067;28;20277;-44
2022/10/21 11:07:18;;;;;;;18.52;15.30;;;;;;;12.46;100.00;100747.94;5036891;28;20193;-44
2022/10/21 11:09:45;;;;;;;17.27;15.43;;;;;;;12.33;100.00;100747.66;5035197;28;20195;-44
2022/10/21 11:12:19;;;;;;;18.38;16.15;;;;;;;12.41;100.00;100742.78;5039968;28;20192;-45
2022/10/21 11:14:50;;;;;;;17.55;15.40;;;;;;;12.42;100.00;100743.66;5037638;28;20286;-46
2022/10/21 11:17:19;;;;;;;20.73;16.85;;;;;;;12.50;100.00;100744.16;5031346;28;20184;-47